Terminal Aerodrome Forecast
Issued by NWS

Home | Current Version | Previous Version | Text Only | Print | Product List | Glossary On
Versions: 1 2 3 4 5 6 7 8 9 10 11 12 13 14 15 16 17 18 19 20 21 22 23 24 25 26 27 28 29 30
000
FTUS42 KCAE 281300 AAB
TAFCUB
TAF AMD
KCUB 281334Z 2814/2912 15003KT P6SM SCT035 OVC080
     FM281600 22005KT P6SM SCT025 OVC050
     FM282300 VRB03KT 5SM BR BKN007 OVC015
     FM290600 VRB03KT 3SM BR VCSH OVC007
     FM290900 VRB03KT 3SM -RA BR OVC004=

USA.gov is the U.S. government's official web portal to all federal, state and local government web resources and services.